Time;durP1;ratioP1;P1;durP2;ratioP2;P2;SDS_P1;SDS_P2;PMS_P1;PMS_P2;Temp;Humidity;BMP_temperature;BMP_pressure;BME280_temperature;BME280_humidity;BME280_pressure;Samples;Min_cycle;Max_cycle;Signal;HPM_P1;HPM_P2
2023/01/19 00:02:25;;;;;;;31.25;7.38;;;;;;;14.25;42.23;93712.38;5116602;28;20517;-67
2023/01/19 00:04:52;;;;;;;14.35;4.35;;;;;;;14.23;42.55;93669.59;5116220;28;20203;-67
2023/01/19 00:07:19;;;;;;;17.50;5.05;;;;;;;14.18;42.40;93707.66;5116770;28;20184;-67
2023/01/19 00:09:46;;;;;;;17.05;5.68;;;;;;;14.20;42.36;93712.81;5116686;28;20202;-67
2023/01/19 00:12:14;;;;;;;22.92;6.45;;;;;;;14.21;43.00;93715.19;5115776;28;20195;-67
2023/01/19 00:14:41;;;;;;;16.52;4.90;;;;;;;14.18;43.23;93754.03;5115587;28;20212;-67
2023/01/19 00:17:07;;;;;;;19.10;5.30;;;;;;;14.11;43.79;93741.00;5116029;28;20203;-67
2023/01/19 00:19:34;;;;;;;19.08;5.45;;;;;;;14.11;43.29;93729.91;5116852;28;20199;-67
2023/01/19 00:22:01;;;;;;;17.95;4.60;;;;;;;14.10;43.44;93742.19;5115455;28;20192;-70
2023/01/19 00:24:28;;;;;;;21.42;6.40;;;;;;;14.08;43.50;93702.22;5116783;28;20184;-68
2023/01/19 00:26:55;;;;;;;21.42;5.82;;;;;;;14.06;44.06;93777.50;5115907;28;20207;-68
2023/01/19 00:29:23;;;;;;;18.15;5.72;;;;;;;14.08;43.25;93736.25;5115585;28;20668;-68
2023/01/19 00:31:50;;;;;;;15.70;4.75;;;;;;;14.09;43.54;93706.56;5116263;28;20176;-68
2023/01/19 00:34:17;;;;;;;15.60;6.00;;;;;;;14.10;43.16;93746.97;5115730;28;20658;-68
2023/01/19 00:36:43;;;;;;;20.13;5.25;;;;;;;14.10;43.09;93744.19;5115716;28;20188;-68
2023/01/19 00:39:10;;;;;;;17.63;5.53;;;;;;;14.11;42.77;93751.31;5115399;28;20203;-69
2023/01/19 00:44:21;;;;;;;16.05;4.70;;;;;;;14.11;43.01;93720.81;5115883;28;20203;-68
2023/01/19 00:46:49;;;;;;;19.73;5.88;;;;;;;14.09;42.97;93729.53;5115343;28;20290;-68
2023/01/19 00:49:15;;;;;;;17.58;5.88;;;;;;;14.09;43.01;93731.50;5115446;28;20203;-68
2023/01/19 00:51:42;;;;;;;15.82;5.45;;;;;;;14.08;42.35;93750.13;5115154;28;20563;-68
2023/01/19 00:54:09;;;;;;;22.98;6.50;;;;;;;14.12;42.52;93753.66;5114686;28;20219;-68
2023/01/19 00:56:36;;;;;;;17.83;5.18;;;;;;;14.11;42.66;93729.13;5114831;28;20254;-68
2023/01/19 00:59:03;;;;;;;17.65;4.55;;;;;;;14.06;42.77;93730.34;5114982;28;20202;-68
2023/01/19 01:01:30;;;;;;;20.02;5.55;;;;;;;14.04;42.76;93715.31;5115661;28;20517;-68
2023/01/19 01:03:58;;;;;;;18.15;4.80;;;;;;;14.03;42.87;93744.25;5114896;28;20196;-68
2023/01/19 01:06:25;;;;;;;17.63;4.90;;;;;;;13.99;43.27;93716.56;5115321;28;20211;-68
2023/01/19 01:08:52;;;;;;;13.52;4.80;;;;;;;14.01;42.40;93738.31;5115500;28;20650;-68
2023/01/19 01:11:18;;;;;;;16.88;5.10;;;;;;;14.04;42.28;93727.19;5114828;28;20290;-68
2023/01/19 01:13:45;;;;;;;20.13;4.93;;;;;;;14.03;42.96;93738.69;5115052;28;20207;-68
2023/01/19 01:16:14;;;;;;;16.67;5.05;;;;;;;14.00;42.69;93692.38;5114401;28;20203;-68
2023/01/19 01:18:41;;;;;;;16.08;5.60;;;;;;;14.01;42.67;93821.47;5114446;28;20542;-68
2023/01/19 01:21:11;;;;;;;17.58;4.88;;;;;;;14.04;42.11;93707.00;5115329;28;20220;-68
2023/01/19 01:23:38;;;;;;;19.17;5.18;;;;;;;14.05;42.18;93698.28;5115701;28;20184;-68
2023/01/19 01:26:05;;;;;;;19.33;5.20;;;;;;;14.05;42.35;93727.97;5114773;28;20276;-68
2023/01/19 01:28:32;;;;;;;14.60;4.55;;;;;;;14.02;42.43;93718.50;5115338;28;20219;-68
2023/01/19 01:30:59;;;;;;;17.83;5.00;;;;;;;14.02;42.17;93734.34;5114937;28;20264;-68
2023/01/19 01:33:26;;;;;;;16.60;4.78;;;;;;;14.07;42.20;93762.41;5115721;28;20599;-68
2023/01/19 01:35:52;;;;;;;18.13;4.63;;;;;;;14.08;42.05;93707.75;5097836;28;20215;-68
2023/01/19 01:38:21;;;;;;;16.08;4.43;;;;;;;14.07;41.71;93720.84;5115584;28;20191;-69
2023/01/19 01:40:48;;;;;;;19.10;4.93;;;;;;;14.06;41.90;93701.84;5115522;28;20192;-68
2023/01/19 01:43:16;;;;;;;14.65;4.65;;;;;;;14.05;41.66;93736.28;5115015;28;20290;-68
2023/01/19 01:45:43;;;;;;;15.70;5.30;;;;;;;14.06;41.74;93726.81;5115464;28;20195;-68
2023/01/19 01:48:13;;;;;;;16.75;4.57;;;;;;;14.09;41.60;93753.69;5118198;28;20218;-68
2023/01/19 01:51:22;;;;;;;12.25;3.72;;;;;;;14.09;41.42;93800.81;5119686;28;20188;-69
2023/01/19 01:53:33;;;;;;;17.70;4.22;;;;;;;14.13;41.48;93746.16;5119052;28;20268;-69
2023/01/19 01:56:03;;;;;;;19.75;4.40;;;;;;;14.12;41.41;93711.28;5119120;28;20280;-69
2023/01/19 01:58:30;;;;;;;14.25;4.13;;;;;;;14.09;41.43;93731.50;5119359;28;20180;-69
2023/01/19 02:03:40;;;;;;;16.98;4.43;;;;;;;14.10;41.40;93717.25;5117992;28;20286;-68
2023/01/19 02:06:07;;;;;;;21.95;4.72;;;;;;;14.10;41.52;93722.78;5119010;28;20171;-68
2023/01/19 02:14:10;;;;;;;14.10;4.00;;;;;;;14.11;41.11;93695.84;5117959;28;20215;-69
2023/01/19 02:16:36;;;;;;;13.93;4.28;;;;;;;14.09;41.47;93681.59;5118613;28;20499;-68
2023/01/19 02:19:04;;;;;;;15.85;4.85;;;;;;;14.05;41.48;93698.28;5117798;28;20200;-69
2023/01/19 02:21:36;;;;;;;14.73;4.47;;;;;;;14.07;40.98;93695.88;5118910;28;20232;-69
2023/01/19 02:24:06;;;;;;;14.68;4.03;;;;;;;14.10;40.85;93674.88;5117873;28;20199;-69
2023/01/19 02:26:35;;;;;;;13.30;3.83;;;;;;;14.09;41.31;93709.31;5117688;28;20203;-68
2023/01/19 02:29:04;;;;;;;14.32;4.25;;;;;;;14.06;40.98;93688.00;5117988;28;20245;-68
2023/01/19 02:31:32;;;;;;;12.02;3.88;;;;;;;14.07;40.82;93715.28;5117575;28;20200;-68
2023/01/19 02:34:00;;;;;;;12.27;3.58;;;;;;;14.06;41.06;93694.31;5118246;28;20184;-68
2023/01/19 02:36:29;;;;;;;17.55;4.20;;;;;;;14.05;41.29;93731.56;5117560;28;20183;-68
2023/01/19 02:38:56;;;;;;;14.07;4.45;;;;;;;14.08;40.85;93735.47;5118332;28;20195;-68
2023/01/19 02:41:27;;;;;;;14.80;3.72;;;;;;;14.10;40.75;93708.16;5118237;28;20612;-68
2023/01/19 02:43:56;;;;;;;17.10;3.75;;;;;;;14.09;40.91;93699.06;5117616;28;20253;-68
2023/01/19 02:46:23;;;;;;;16.15;5.03;;;;;;;14.08;40.68;93735.47;5117486;28;20262;-68
2023/01/19 02:48:50;;;;;;;11.32;3.65;;;;;;;14.11;40.32;93720.81;5117310;28;20260;-68
2023/01/19 02:51:18;;;;;;;15.73;4.30;;;;;;;14.13;40.17;93704.56;5117624;28;20195;-68
2023/01/19 02:53:57;;;;;;;10.95;3.13;;;;;;;14.14;40.50;93717.22;5118459;28;20188;-67
2023/01/19 02:56:50;;;;;;;14.32;3.75;;;;;;;14.11;40.36;93740.22;5118247;28;20602;-68
2023/01/19 02:59:25;;;;;;;10.95;3.67;;;;;;;14.10;40.47;93722.78;5114101;28;20250;-67
2023/01/19 03:02:04;;;;;;;13.10;3.63;;;;;;;14.10;40.35;93736.66;5118086;28;20610;-67
2023/01/19 03:04:41;;;;;;;13.13;3.80;;;;;;;14.10;40.11;93688.75;5117763;28;20659;-68
2023/01/19 03:07:10;;;;;;;16.85;4.38;;;;;;;14.09;40.27;93757.28;5117701;28;20610;-67
2023/01/19 03:09:42;;;;;;;11.52;3.95;;;;;;;14.09;40.37;93698.22;5117124;28;20199;-68
2023/01/19 03:12:19;;;;;;;18.63;3.42;;;;;;;14.06;40.60;93710.16;5116638;28;20196;-68
2023/01/19 03:14:48;;;;;;;12.68;3.80;;;;;;;14.01;40.62;93755.72;5118029;28;20244;-68
2023/01/19 03:17:17;;;;;;;13.25;4.30;;;;;;;14.04;40.49;93745.81;5117046;28;20195;-68
2023/01/19 03:19:46;;;;;;;16.42;4.18;;;;;;;14.02;40.44;93740.69;5117857;28;20184;-67
2023/01/19 03:22:15;;;;;;;15.93;4.10;;;;;;;14.04;40.59;93743.03;5116522;28;20299;-67
2023/01/19 03:24:43;;;;;;;15.70;4.05;;;;;;;14.04;40.52;93696.69;5117616;28;20233;-67
2023/01/19 03:27:14;;;;;;;15.27;4.38;;;;;;;14.04;39.95;93726.41;5117778;28;20187;-67
2023/01/19 03:29:42;;;;;;;16.73;4.97;;;;;;;14.04;39.87;93738.28;5117654;28;20180;-67
2023/01/19 03:32:12;;;;;;;13.57;3.95;;;;;;;14.06;40.05;93749.75;5116443;28;20228;-68
2023/01/19 03:34:39;;;;;;;15.27;4.10;;;;;;;14.07;40.16;93748.56;5117460;28;20543;-68
2023/01/19 03:37:07;;;;;;;14.05;4.43;;;;;;;14.06;40.49;93843.25;5117184;28;20642;-68
2023/01/19 03:39:34;;;;;;;16.20;4.10;;;;;;;14.06;40.23;93710.94;5116797;28;20204;-68
2023/01/19 03:42:04;;;;;;;16.35;3.80;;;;;;;14.04;40.32;93715.31;5116422;28;20227;-69
2023/01/19 03:44:35;;;;;;;15.15;5.20;;;;;;;14.01;40.16;93725.22;5117538;28;20237;-69
2023/01/19 03:47:03;;;;;;;15.55;4.40;;;;;;;14.01;40.20;93697.50;5117307;27;20188;-69
2023/01/19 03:49:31;;;;;;;13.07;4.20;;;;;;;14.00;40.31;93731.19;5116865;28;20632;-69
2023/01/19 03:51:58;;;;;;;16.67;4.65;;;;;;;13.98;40.40;93734.38;5116208;28;20245;-68
2023/01/19 03:54:25;;;;;;;16.67;4.13;;;;;;;13.97;40.64;93716.94;5116390;28;20200;-68
2023/01/19 03:56:52;;;;;;;16.35;4.25;;;;;;;13.94;40.49;93726.09;5115782;28;20611;-68
2023/01/19 03:59:20;;;;;;;17.00;4.63;;;;;;;13.94;40.48;93719.72;5116175;28;20248;-68
2023/01/19 04:01:49;;;;;;;16.35;4.68;;;;;;;13.95;40.02;93746.28;5116732;28;20524;-71
2023/01/19 04:04:36;;;;;;;14.20;4.68;;;;;;;13.97;40.06;93771.59;5116557;28;20207;-69
2023/01/19 04:07:03;;;;;;;18.55;5.00;;;;;;;13.99;39.87;93818.31;5117076;28;20233;-69
2023/01/19 04:09:49;;;;;;;17.45;5.18;;;;;;;14.00;39.63;93748.59;5116105;28;20718;-69
2023/01/19 04:12:25;;;;;;;14.98;4.82;;;;;;;14.01;39.36;93716.91;5116252;28;20195;-69
2023/01/19 04:15:04;;;;;;;21.17;5.47;;;;;;;14.06;39.16;93746.22;5115522;28;20215;-69
2023/01/19 04:17:32;;;;;;;18.52;5.10;;;;;;;14.08;39.19;93733.50;5116565;28;20190;-70
2023/01/19 04:19:59;;;;;;;21.52;4.55;;;;;;;14.06;38.85;93713.72;5116051;28;20203;-70
2023/01/19 04:22:26;;;;;;;22.05;4.95;;;;;;;14.06;38.93;93729.56;5116480;28;20248;-70
2023/01/19 04:24:54;;;;;;;20.42;6.05;;;;;;;14.05;38.46;93681.66;5116499;28;20240;-70
2023/01/19 04:27:21;;;;;;;17.52;5.00;;;;;;;14.06;38.75;93693.53;5116347;28;20187;-70
2023/01/19 04:29:48;;;;;;;23.40;5.88;;;;;;;14.04;39.08;93693.94;5116192;28;20180;-71
2023/01/19 04:32:15;;;;;;;18.83;5.57;;;;;;;14.06;38.73;93707.41;5115626;28;20207;-71
2023/01/19 04:34:43;;;;;;;23.67;6.18;;;;;;;14.07;38.17;93692.31;5116547;28;20548;-70
2023/01/19 04:37:10;;;;;;;16.00;5.20;;;;;;;14.08;38.32;93680.03;5116152;28;20279;-69
2023/01/19 04:39:36;;;;;;;25.08;6.82;;;;;;;14.07;38.73;93790.16;5114938;28;20204;-69
2023/01/19 04:42:03;;;;;;;25.40;6.28;;;;;;;14.13;37.78;93677.63;5116290;28;20179;-69
2023/01/19 04:44:30;;;;;;;16.70;5.15;;;;;;;14.16;37.36;93684.31;5115321;28;20256;-69
2023/01/19 04:46:56;;;;;;;22.05;5.10;;;;;;;14.18;37.29;93663.31;5114981;28;20195;-69
2023/01/19 04:49:23;;;;;;;27.50;6.18;;;;;;;14.22;37.20;93702.09;5115090;28;20194;-69
2023/01/19 04:51:54;;;;;;;27.08;5.68;;;;;;;14.23;37.05;93673.16;5115597;28;20574;-69
2023/01/19 04:54:20;;;;;;;23.33;6.80;;;;;;;14.26;36.81;93710.38;5115730;28;20542;-69
2023/01/19 04:56:47;;;;;;;22.33;5.93;;;;;;;14.30;37.30;93694.50;5114548;28;20288;-69
2023/01/19 04:59:14;;;;;;;18.30;5.32;;;;;;;14.27;37.51;93709.19;5115152;28;20199;-69
2023/01/19 05:01:40;;;;;;;15.40;4.80;;;;;;;14.24;37.73;93723.88;5115334;28;20262;-69
2023/01/19 05:04:08;;;;;;;19.65;5.70;;;;;;;14.22;37.74;93724.28;5115975;28;20200;-68
2023/01/19 05:06:35;;;;;;;23.63;5.70;;;;;;;14.20;37.75;93763.53;5116038;28;20183;-74
2023/01/19 05:09:06;;;;;;;19.73;5.68;;;;;;;14.22;37.64;93724.28;5114918;28;20200;-71
2023/01/19 05:11:33;;;;;;;19.13;5.75;;;;;;;14.22;37.74;93721.50;5115156;28;20192;-69
2023/01/19 05:14:00;;;;;;;20.73;5.90;;;;;;;14.25;37.70;93750.41;5115387;28;20199;-69
2023/01/19 05:16:26;;;;;;;15.93;4.57;;;;;;;14.23;37.96;93764.66;5114962;28;20216;-69
2023/01/19 05:18:53;;;;;;;17.13;4.60;;;;;;;14.23;38.09;93736.16;5114816;28;20199;-69
2023/01/19 05:21:20;;;;;;;19.55;6.13;;;;;;;14.19;38.06;93761.94;5115403;28;20199;-68
2023/01/19 05:23:47;;;;;;;22.15;6.32;;;;;;;14.20;37.76;93857.81;5115685;28;20214;-69
2023/01/19 05:26:15;;;;;;;21.08;5.55;;;;;;;14.25;37.89;93750.41;5114874;28;20199;-68
2023/01/19 05:28:41;;;;;;;18.27;4.15;;;;;;;14.22;37.96;93754.78;5114627;28;20260;-68
2023/01/19 05:31:08;;;;;;;20.73;4.90;;;;;;;14.18;38.16;93748.47;5114804;28;20207;-69
2023/01/19 05:33:35;;;;;;;22.00;4.80;;;;;;;14.15;38.26;93729.88;5115658;28;20184;-69
2023/01/19 05:36:03;;;;;;;20.80;4.80;;;;;;;14.11;38.17;93743.00;5115718;28;20203;-69
2023/01/19 05:38:29;;;;;;;23.95;6.93;;;;;;;14.13;37.59;93729.53;5115625;28;20232;-68
2023/01/19 05:40:57;;;;;;;15.43;4.90;;;;;;;14.20;37.41;93763.53;5114230;28;20604;-68
2023/01/19 05:43:26;;;;;;;23.95;5.65;;;;;;;14.21;37.49;93722.72;5115531;28;20187;-69
2023/01/19 05:45:52;;;;;;;19.77;5.00;;;;;;;14.22;36.99;93760.34;5114693;28;20203;-68
2023/01/19 05:48:19;;;;;;;21.35;6.43;;;;;;;14.27;36.91;93770.19;5115473;28;20184;-66
2023/01/19 05:50:48;;;;;;;23.08;5.72;;;;;;;14.28;37.26;93766.25;5114312;28;20204;-68
2023/01/19 05:53:15;;;;;;;20.35;5.88;;;;;;;14.26;37.46;93786.03;5115463;28;20188;-67
2023/01/19 05:55:41;;;;;;;21.83;6.07;;;;;;;14.23;37.83;93769.44;5114349;28;20235;-70
2023/01/19 05:58:08;;;;;;;19.98;5.85;;;;;;;14.18;37.82;93757.59;5115337;28;20188;-70
2023/01/19 06:00:36;;;;;;;24.83;6.18;;;;;;;14.20;37.50;93757.19;5115405;28;20249;-70
2023/01/19 06:03:05;;;;;;;26.13;6.95;;;;;;;14.19;37.70;93766.69;5115069;28;20179;-70
2023/01/19 06:05:32;;;;;;;23.77;7.03;;;;;;;14.20;37.15;93749.66;5115165;28;20580;-70
2023/01/19 06:07:58;;;;;;;21.95;5.47;;;;;;;14.25;37.35;93742.88;5114798;28;20260;-70
2023/01/19 06:10:25;;;;;;;22.70;6.15;;;;;;;14.26;37.35;93768.63;5114191;28;20192;-69
2023/01/19 06:12:52;;;;;;;20.25;4.85;;;;;;;14.27;37.42;93754.38;5115188;28;20249;-68
2023/01/19 06:15:19;;;;;;;20.90;5.78;;;;;;;14.29;37.27;93760.28;5115197;28;20196;-67
2023/01/19 06:17:47;;;;;;;24.98;7.72;;;;;;;14.29;37.40;93762.25;5115242;28;20199;-70
2023/01/19 06:20:14;;;;;;;21.70;6.72;;;;;;;14.29;37.37;93776.13;5114292;28;20214;-70
2023/01/19 06:22:41;;;;;;;23.63;6.65;;;;;;;14.29;37.49;93765.81;5115087;28;20194;-70
2023/01/19 06:25:08;;;;;;;22.40;6.13;;;;;;;14.29;37.39;93798.31;5113928;28;20257;-70
2023/01/19 06:27:35;;;;;;;21.42;6.88;;;;;;;14.30;37.34;93752.75;5114229;28;20199;-70
2023/01/19 06:30:02;;;;;;;21.00;6.80;;;;;;;14.28;37.41;93774.56;5114156;28;20180;-70
2023/01/19 06:32:29;;;;;;;23.38;6.75;;;;;;;14.28;37.54;93777.34;5115079;28;20279;-70
2023/01/19 06:34:57;;;;;;;21.02;6.38;;;;;;;14.28;37.65;93749.59;5117093;28;20191;-70
2023/01/19 06:37:26;;;;;;;19.33;5.97;;;;;;;14.25;37.61;93767.06;5117657;28;20207;-70
2023/01/19 06:39:52;;;;;;;18.08;6.47;;;;;;;14.21;37.75;93756.78;5118624;28;20207;-70
2023/01/19 06:42:19;;;;;;;22.08;6.60;;;;;;;14.23;38.17;93797.94;5118314;28;20184;-70
2023/01/19 06:44:46;;;;;;;19.50;5.55;;;;;;;14.24;38.18;93787.66;5117747;28;20320;-70
2023/01/19 06:47:14;;;;;;;23.73;6.70;;;;;;;14.21;38.94;93823.31;5118774;27;20274;-70
2023/01/19 06:49:40;;;;;;;26.15;6.20;;;;;;;14.13;39.66;93830.13;5118183;28;20184;-70
2023/01/19 06:52:10;;;;;;;22.42;6.95;;;;;;;14.09;39.07;93809.13;5117689;28;20184;-70
2023/01/19 06:54:36;;;;;;;22.90;6.65;;;;;;;14.12;38.60;93822.19;5117641;28;20191;-70
2023/01/19 06:57:03;;;;;;;20.60;6.07;;;;;;;14.17;38.10;93800.38;5116844;28;20231;-70
2023/01/19 06:59:30;;;;;;;27.10;6.43;;;;;;;14.21;38.19;93815.00;5117382;28;20202;-70
2023/01/19 07:01:57;;;;;;;23.83;6.32;;;;;;;14.21;38.71;93822.53;5118515;28;20227;-70
2023/01/19 07:04:25;;;;;;;26.65;7.32;;;;;;;14.18;38.50;93813.03;5118279;27;20183;-70
2023/01/19 07:06:52;;;;;;;23.20;6.75;;;;;;;14.18;38.92;93815.03;5118025;28;20227;-70
2023/01/19 07:09:20;;;;;;;23.73;6.65;;;;;;;14.17;39.51;93832.88;5118100;28;20200;-70
2023/01/19 07:11:48;;;;;;;27.00;7.25;;;;;;;14.18;38.27;93810.28;5118066;28;20199;-69
2023/01/19 07:14:15;;;;;;;23.48;6.28;;;;;;;14.24;38.56;93818.19;5117972;28;20191;-69
2023/01/19 07:16:42;;;;;;;26.20;7.55;;;;;;;14.30;37.84;93822.84;5117993;28;20207;-70
2023/01/19 07:19:09;;;;;;;29.52;9.45;;;;;;;14.39;37.11;93828.75;5116922;28;20187;-70
2023/01/19 07:21:36;;;;;;;24.25;6.13;;;;;;;14.47;37.02;93800.97;5117053;28;20223;-70
2023/01/19 07:24:03;;;;;;;21.85;6.13;;;;;;;14.49;37.13;93793.81;5117583;28;20222;-71
2023/01/19 07:26:31;;;;;;;23.40;7.13;;;;;;;14.52;36.79;93808.88;5117553;28;20180;-70
2023/01/19 07:28:58;;;;;;;23.05;7.63;;;;;;;14.58;36.97;93812.78;5116523;28;20196;-70
2023/01/19 07:31:25;;;;;;;24.70;7.15;;;;;;;14.59;36.84;93861.53;5117342;28;20515;-70
2023/01/19 07:33:51;;;;;;;24.80;6.55;;;;;;;14.61;37.27;93821.09;5117183;28;20195;-70
2023/01/19 07:36:18;;;;;;;25.48;6.55;;;;;;;14.57;37.96;93809.22;5117263;28;20207;-70
2023/01/19 07:38:45;;;;;;;22.45;6.75;;;;;;;14.58;38.03;93810.78;5117542;28;20191;-69
2023/01/19 07:41:11;;;;;;;23.25;7.40;;;;;;;14.58;38.17;93807.25;5116629;28;20203;-70
2023/01/19 07:43:40;;;;;;;19.67;6.45;;;;;;;14.62;37.11;93802.44;5117525;28;20199;-69
2023/01/19 07:46:07;;;;;;;24.73;7.18;;;;;;;14.69;36.89;93838.47;5116694;28;20212;-70
2023/01/19 07:48:33;;;;;;;25.45;7.00;;;;;;;14.82;36.71;93816.56;5116674;28;20260;-69
2023/01/19 07:51:04;;;;;;;27.55;7.63;;;;;;;14.89;36.74;93811.72;5116251;28;20186;-69
2023/01/19 07:53:31;;;;;;;24.55;6.95;;;;;;;14.88;37.84;93821.22;5117407;28;20188;-70
2023/01/19 07:55:58;;;;;;;20.90;7.38;;;;;;;14.84;37.56;93812.16;5116016;28;20242;-70
2023/01/19 07:58:25;;;;;;;24.08;5.57;;;;;;;14.80;37.47;93825.28;5116872;28;20624;-70
2023/01/19 08:00:53;;;;;;;25.75;6.85;;;;;;;14.78;37.66;93829.66;5117022;28;20259;-69
2023/01/19 08:03:20;;;;;;;24.25;7.38;;;;;;;14.78;37.77;93838.78;5117081;28;20180;-70
2023/01/19 08:05:50;;;;;;;24.42;7.10;;;;;;;14.72;37.65;93853.50;5117236;28;20184;-70
2023/01/19 08:08:17;;;;;;;23.48;7.65;;;;;;;14.69;37.65;93830.13;5116607;28;20183;-70
2023/01/19 08:10:44;;;;;;;24.45;7.03;;;;;;;14.65;37.92;93846.81;5116032;28;20196;-70
2023/01/19 08:13:10;;;;;;;24.25;7.38;;;;;;;14.70;38.14;93828.94;5115885;28;20551;-70
2023/01/19 08:15:38;;;;;;;24.80;5.85;;;;;;;14.70;37.65;93817.81;5115759;28;20207;-70
2023/01/19 08:18:08;;;;;;;23.23;6.85;;;;;;;14.77;37.24;93814.19;5116427;28;20214;-70
2023/01/19 08:20:35;;;;;;;27.92;5.90;;;;;;;14.81;36.66;93818.53;5115925;28;20198;-70
2023/01/19 08:23:03;;;;;;;23.10;6.15;;;;;;;14.94;36.53;93863.22;5116293;28;20179;-70
2023/01/19 08:25:33;;;;;;;28.23;6.63;;;;;;;15.05;35.55;93836.16;5116252;28;20200;-69
2023/01/19 08:28:00;;;;;;;23.25;7.20;;;;;;;15.15;34.82;93856.69;5116545;28;20184;-69
2023/01/19 08:30:27;;;;;;;24.48;6.40;;;;;;;15.20;36.11;93864.56;5115738;28;20206;-70
2023/01/19 08:32:56;;;;;;;23.15;6.40;;;;;;;15.25;35.32;93830.81;5116383;28;20188;-70
2023/01/19 08:35:25;;;;;;;22.38;7.50;;;;;;;15.31;36.01;93872.81;5116111;28;20248;-70
2023/01/19 08:37:51;;;;;;;27.65;6.53;;;;;;;15.27;36.04;93858.16;5116537;28;20214;-70
2023/01/19 08:40:19;;;;;;;25.75;6.22;;;;;;;15.29;36.46;93866.88;5115663;28;20199;-70
2023/01/19 08:42:45;;;;;;;26.98;7.20;;;;;;;15.36;36.31;93892.59;5116328;28;20184;-69
2023/01/19 08:45:12;;;;;;;23.25;7.68;;;;;;;15.38;35.09;93870.75;5115304;28;20615;-69
2023/01/19 08:47:39;;;;;;;26.88;6.38;;;;;;;15.45;35.81;93842.09;5116265;28;20188;-69
2023/01/19 08:50:06;;;;;;;25.10;7.30;;;;;;;15.55;35.09;93885.66;5115634;28;20200;-70
2023/01/19 08:52:34;;;;;;;23.55;6.13;;;;;;;15.68;34.78;93869.25;5116270;28;20250;-70
2023/01/19 08:55:01;;;;;;;18.27;5.95;;;;;;;15.73;35.07;93891.06;5116253;28;20185;-70
2023/01/19 08:57:28;;;;;;;25.88;6.93;;;;;;;15.81;34.33;93869.50;5115050;28;20239;-70
2023/01/19 08:59:55;;;;;;;20.77;6.95;;;;;;;15.89;34.74;93888.47;5115576;28;20200;-69
2023/01/19 09:02:21;;;;;;;24.05;6.05;;;;;;;15.90;34.95;93861.44;5115154;28;20192;-70
2023/01/19 09:04:48;;;;;;;19.95;5.93;;;;;;;15.99;34.19;93905.44;5116044;28;20184;-70
2023/01/19 09:07:16;;;;;;;22.27;6.63;;;;;;;16.06;34.01;93922.84;5115926;28;20176;-70
2023/01/19 09:09:44;;;;;;;22.98;6.50;;;;;;;16.12;33.79;93864.72;5115019;28;20195;-69
2023/01/19 09:12:11;;;;;;;20.13;6.13;;;;;;;16.19;34.23;93889.69;5115145;28;20561;-70
2023/01/19 09:14:37;;;;;;;20.65;5.20;;;;;;;16.28;33.91;93889.97;5115120;28;20208;-70
2023/01/19 09:17:05;;;;;;;23.80;6.18;;;;;;;16.39;33.66;93872.34;5115491;28;20204;-69
2023/01/19 09:19:31;;;;;;;17.25;5.78;;;;;;;16.48;33.61;93887.28;5115738;28;20198;-70
2023/01/19 09:21:59;;;;;;;23.23;5.70;;;;;;;16.55;33.30;93883.63;5115533;28;20211;-70
2023/01/19 09:24:25;;;;;;;22.77;6.47;;;;;;;16.58;32.60;93891.91;5115193;28;20196;-70
2023/01/19 09:26:54;;;;;;;21.83;5.93;;;;;;;16.63;32.94;93889.88;5114739;28;20584;-70
2023/01/19 09:29:21;;;;;;;18.77;5.05;;;;;;;16.68;34.19;93879.06;5115231;28;20208;-70
2023/01/19 09:31:48;;;;;;;15.40;5.28;;;;;;;16.76;33.04;93886.13;5115184;28;20192;-70
2023/01/19 09:34:15;;;;;;;20.80;5.47;;;;;;;16.86;32.64;93852.97;5115797;28;20191;-70
2023/01/19 09:36:41;;;;;;;15.45;4.68;;;;;;;16.96;32.58;93858.38;5114630;28;20212;-70
2023/01/19 09:39:09;;;;;;;14.93;4.70;;;;;;;17.02;32.65;93887.28;5114630;28;20203;-70
2023/01/19 09:41:37;;;;;;;13.70;3.70;;;;;;;17.09;32.41;93847.41;5114885;28;20203;-70
2023/01/19 09:44:06;;;;;;;15.07;4.03;;;;;;;17.16;32.44;93854.84;5114824;28;20191;-70
2023/01/19 09:46:37;;;;;;;16.75;4.32;;;;;;;17.26;32.13;93848.31;5115560;28;20195;-70
2023/01/19 09:49:05;;;;;;;16.35;5.10;;;;;;;17.33;32.06;93884.41;5114592;28;20200;-70
2023/01/19 09:51:35;;;;;;;13.02;3.88;;;;;;;17.35;32.18;93850.53;5114761;28;20199;-70
2023/01/19 09:54:09;;;;;;;14.00;4.13;;;;;;;17.44;32.17;93842.41;5115170;28;20184;-70
2023/01/19 09:56:36;;;;;;;14.98;4.13;;;;;;;17.53;32.22;93857.34;5114128;28;20230;-70
2023/01/19 09:59:18;;;;;;;15.98;4.60;;;;;;;17.63;32.18;93866.72;5114474;28;20597;-70
2023/01/19 10:01:52;;;;;;;15.35;5.07;;;;;;;17.65;31.34;93847.56;5114242;28;20196;-70
2023/01/19 10:04:34;;;;;;;13.23;3.97;;;;;;;17.69;31.67;93851.09;5115019;28;20627;-70
2023/01/19 10:07:10;;;;;;;15.65;4.47;;;;;;;17.69;31.57;93817.63;5114135;28;20199;-70
2023/01/19 10:09:46;;;;;;;14.93;4.80;;;;;;;17.72;31.12;93833.50;5118417;28;20202;-70
2023/01/19 10:12:28;;;;;;;14.60;4.28;;;;;;;17.75;31.69;93838.22;5119180;28;20244;-69
2023/01/19 10:15:03;;;;;;;17.30;4.40;;;;;;;17.79;32.39;93850.13;5118185;28;20191;-68
2023/01/19 10:17:38;;;;;;;18.95;4.15;;;;;;;17.83;31.99;93832.50;5119230;28;20283;-68
2023/01/19 10:20:14;;;;;;;10.88;3.72;;;;;;;17.95;32.07;93827.06;5118192;28;20199;-68
2023/01/19 10:22:43;;;;;;;13.57;4.53;;;;;;;18.08;31.98;93816.03;5118994;28;20184;-68
2023/01/19 10:25:14;;;;;;;15.98;3.65;;;;;;;18.25;31.17;93803.69;5118074;28;20727;-68
2023/01/19 10:27:41;;;;;;;13.68;3.38;;;;;;;18.29;30.84;93812.78;5118901;28;20211;-68
2023/01/19 10:30:17;;;;;;;13.75;3.58;;;;;;;18.32;30.39;93829.88;5118755;28;20192;-68
2023/01/19 10:32:44;;;;;;;12.40;4.43;;;;;;;18.24;30.72;93840.41;5117789;28;20187;-68
2023/01/19 10:35:20;;;;;;;14.15;4.22;;;;;;;18.28;30.98;93833.53;5118985;28;20195;-68
2023/01/19 10:37:47;;;;;;;9.10;3.88;;;;;;;18.12;30.57;93829.91;5118610;27;20215;-68
2023/01/19 10:40:20;;;;;;;18.48;5.00;;;;;;;17.96;31.43;93839.81;5117890;28;20249;-70
2023/01/19 10:42:46;;;;;;;14.82;4.22;;;;;;;17.76;31.02;93864.91;5118265;28;20195;-69
2023/01/19 10:45:16;;;;;;;14.13;4.13;;;;;;;17.56;30.91;93805.53;5118265;28;20205;-69
2023/01/19 10:47:44;;;;;;;11.18;3.92;;;;;;;17.55;31.31;93812.31;5118553;28;20187;-70
2023/01/19 10:50:24;;;;;;;11.07;3.30;;;;;;;17.62;31.78;93806.63;5117505;28;20207;-69
2023/01/19 10:52:52;;;;;;;13.30;4.15;;;;;;;17.70;31.44;93824.75;5117303;28;20195;-69
2023/01/19 10:55:29;;;;;;;14.65;4.35;;;;;;;17.64;31.33;93798.59;5118243;28;20184;-69
2023/01/19 10:57:56;;;;;;;13.02;3.78;;;;;;;17.53;31.06;93818.31;5117803;28;20199;-69
2023/01/19 11:00:39;;;;;;;11.88;3.80;;;;;;;17.38;31.45;93839.31;5117351;28;20202;-69
2023/01/19 11:03:22;;;;;;;11.23;4.13;;;;;;;17.11;31.98;93839.41;5117119;28;20195;-69
2023/01/19 11:05:48;;;;;;;14.45;4.03;;;;;;;16.89;31.90;93835.41;5118170;28;20221;-69
2023/01/19 11:08:23;;;;;;;10.32;3.58;;;;;;;16.72;32.28;93785.13;5117698;28;20176;-70
2023/01/19 11:10:53;;;;;;;12.90;3.65;;;;;;;16.77;32.29;93811.72;5116721;28;20194;-70
2023/01/19 11:13:19;;;;;;;11.50;3.33;;;;;;;16.71;32.27;93791.13;5117673;28;20593;-70
2023/01/19 11:15:50;;;;;;;10.73;3.38;;;;;;;16.66;32.50;93791.59;5117044;28;20202;-69
2023/01/19 11:18:24;;;;;;;12.80;3.90;;;;;;;16.65;32.90;93824.22;5117531;28;20237;-70
2023/01/19 11:20:53;;;;;;;12.68;3.28;;;;;;;16.71;32.56;93785.56;5116739;28;20187;-69
2023/01/19 11:23:24;;;;;;;10.27;3.75;;;;;;;16.84;32.33;93790.13;5117048;28;20195;-69
2023/01/19 11:25:52;;;;;;;13.23;3.42;;;;;;;17.10;32.26;93782.09;5117754;28;20180;-70
2023/01/19 11:28:20;;;;;;;10.20;3.35;;;;;;;17.22;31.88;93762.00;5117652;28;20203;-70
2023/01/19 11:31:00;;;;;;;10.18;3.15;;;;;;;17.47;31.56;93778.22;5117679;28;20257;-70
2023/01/19 11:33:33;;;;;;;10.07;3.47;;;;;;;17.65;31.21;93789.03;5116401;28;20195;-71
2023/01/19 11:36:05;;;;;;;9.43;3.22;;;;;;;17.79;30.54;93777.63;5117814;28;20236;-70
2023/01/19 11:38:32;;;;;;;17.20;4.82;;;;;;;17.89;30.33;93794.53;5116720;28;20218;-68
2023/01/19 11:41:02;;;;;;;10.65;3.80;;;;;;;17.96;30.95;93797.16;5117548;28;20194;-68
2023/01/19 11:43:30;;;;;;;10.77;3.33;;;;;;;18.10;30.54;93782.13;5116468;28;20199;-68